Time;durP1;ratioP1;P1;durP2;ratioP2;P2;SDS_P1;SDS_P2;PMS_P1;PMS_P2;Temp;Humidity;BMP_temperature;BMP_pressure;BME280_temperature;BME280_humidity;BME280_pressure;Samples;Min_cycle;Max_cycle;Signal;HPM_P1;HPM_P2
2021/01/14 00:00:28;;;;;;;11.57;4.60;;;;;;;-2.59;61.77;93381.75;5064835;28;20024;-72
2021/01/14 00:02:54;;;;;;;9.10;4.15;;;;;;;-2.56;61.18;93374.25;5062084;28;20565;-71
2021/01/14 00:05:20;;;;;;;8.35;4.38;;;;;;;-2.49;60.96;93385.25;5071567;28;20055;-72
2021/01/14 00:07:45;;;;;;;12.60;4.47;;;;;;;-2.46;61.33;93384.78;5072860;28;20036;-72
2021/01/14 00:10:12;;;;;;;12.77;4.65;;;;;;;-2.47;60.48;93385.03;5070906;28;20035;-72
2021/01/14 00:12:40;;;;;;;8.38;3.67;;;;;;;-2.57;59.90;93374.47;5072245;28;20043;-72
2021/01/14 00:15:06;;;;;;;15.07;4.15;;;;;;;-2.47;60.42;93382.41;5058853;28;20029;-72
2021/01/14 00:17:32;;;;;;;12.50;4.93;;;;;;;-2.46;59.97;93378.78;5052655;28;20102;-72
2021/01/14 00:19:59;;;;;;;14.60;4.13;;;;;;;-2.45;59.61;93390.78;5055705;28;20025;-72
2021/01/14 00:22:24;;;;;;;13.57;3.97;;;;;;;-2.37;59.40;93376.53;5052526;28;20029;-72
2021/01/14 00:24:50;;;;;;;6.32;3.28;;;;;;;-2.47;60.12;93380.59;5060877;28;20032;-72
2021/01/14 00:27:15;;;;;;;9.63;3.83;;;;;;;-2.47;59.28;93374.59;5051273;28;20033;-72
2021/01/14 00:29:41;;;;;;;13.80;4.47;;;;;;;-2.45;58.39;93378.53;5061370;28;20032;-72
2021/01/14 00:32:06;;;;;;;8.05;3.35;;;;;;;-2.46;58.99;93381.41;5072601;28;20025;-72
2021/01/14 00:34:32;;;;;;;10.95;3.30;;;;;;;-2.45;57.78;93370.69;5072374;28;20025;-72
2021/01/14 00:39:42;;;;;;;8.57;3.85;;;;;;;-2.38;58.40;93383.59;5072642;28;20039;-72
2021/01/14 00:42:07;;;;;;;6.28;3.20;;;;;;;-2.38;57.97;93383.59;5071073;28;20024;-72
2021/01/14 00:44:32;;;;;;;7.03;2.90;;;;;;;-2.45;57.27;93385.56;5069426;28;20028;-72
2021/01/14 00:46:58;;;;;;;13.57;3.47;;;;;;;-2.45;57.79;93386.34;5061074;28;20041;-71
2021/01/14 00:49:25;;;;;;;7.65;3.42;;;;;;;-2.48;56.76;93371.19;5052123;28;20025;-72
2021/01/14 00:51:50;;;;;;;5.45;2.90;;;;;;;-2.45;56.74;93377.75;5051874;28;20074;-72
2021/01/14 00:54:16;;;;;;;14.00;3.80;;;;;;;-2.39;57.14;93382.00;5060578;28;20454;-72
2021/01/14 00:56:42;;;;;;;9.20;3.05;;;;;;;-2.39;56.79;93389.81;5054818;28;20044;-72
2021/01/14 00:59:07;;;;;;;8.43;2.67;;;;;;;-2.46;56.95;93379.56;5071816;28;20487;-72
2021/01/14 01:01:34;;;;;;;10.25;3.03;;;;;;;-2.48;57.32;93383.47;5069428;28;20081;-72
2021/01/14 01:04:00;;;;;;;7.68;3.67;;;;;;;-2.42;57.00;93372.06;5051848;28;20028;-73
2021/01/14 01:06:32;;;;;;;9.57;3.17;;;;;;;-2.43;57.20;93391.34;5058902;28;20108;-73
2021/01/14 01:08:58;;;;;;;9.95;2.67;;;;;;;-2.43;56.84;93384.28;5057197;28;20094;-72
2021/01/14 01:11:24;;;;;;;5.57;2.53;;;;;;;-2.38;57.42;93380.97;5064973;28;20048;-72
2021/01/14 01:13:50;;;;;;;5.53;2.70;;;;;;;-2.37;57.03;93376.53;5070100;28;20060;-72
2021/01/14 01:16:16;;;;;;;6.43;2.60;;;;;;;-2.39;57.31;93371.56;5060102;28;20024;-72
2021/01/14 01:18:42;;;;;;;6.60;2.80;;;;;;;-2.30;57.08;93380.53;5050354;28;20083;-72
2021/01/14 01:21:08;;;;;;;6.10;2.42;;;;;;;-2.28;57.31;93370.63;5050034;28;20035;-72
2021/01/14 01:23:34;;;;;;;8.25;3.17;;;;;;;-2.27;56.90;93382.66;5050360;28;20468;-72
2021/01/14 01:25:59;;;;;;;8.38;3.10;;;;;;;-2.31;56.67;93375.56;5051203;28;20041;-72
2021/01/14 01:28:24;;;;;;;7.47;2.60;;;;;;;-2.30;56.77;93362.25;5051530;28;20032;-73
2021/01/14 01:30:50;;;;;;;4.32;2.28;;;;;;;-2.32;55.54;93368.75;5050118;28;20078;-72
2021/01/14 01:33:15;;;;;;;10.65;2.70;;;;;;;-2.41;55.84;93365.78;5051192;28;20033;-72
2021/01/14 01:35:41;;;;;;;6.40;2.80;;;;;;;-2.42;55.84;93364.22;5051496;28;20032;-72
2021/01/14 01:38:06;;;;;;;6.30;2.60;;;;;;;-2.37;56.33;93356.44;5051224;28;20021;-73
2021/01/14 01:40:31;;;;;;;6.93;2.40;;;;;;;-2.37;56.01;93355.66;5051334;28;20035;-72
2021/01/14 01:42:57;;;;;;;11.70;2.85;;;;;;;-2.43;55.42;93352.19;5064248;28;20081;-72
2021/01/14 01:45:23;;;;;;;4.65;2.00;;;;;;;-2.45;55.30;93355.03;5069598;28;20036;-72
2021/01/14 01:47:49;;;;;;;3.75;1.80;;;;;;;-2.48;54.74;93357.38;5071215;28;20368;-72
2021/01/14 01:50:15;;;;;;;5.68;2.28;;;;;;;-2.48;54.59;93359.97;5070754;28;20028;-72
2021/01/14 01:52:41;;;;;;;8.45;2.53;;;;;;;-2.42;55.44;93356.41;5063503;28;20028;-72
2021/01/14 01:55:08;;;;;;;4.63;2.17;;;;;;;-2.38;54.81;93346.22;5050945;28;20037;-72
2021/01/14 01:57:33;;;;;;;7.40;2.05;;;;;;;-2.37;55.13;93342.59;5064378;28;20473;-72
2021/01/14 01:59:59;;;;;;;5.05;2.47;;;;;;;-2.36;55.44;93344.16;5054212;28;20070;-72
2021/01/14 02:02:27;;;;;;;5.93;2.90;;;;;;;-2.41;56.49;93339.69;5050889;28;20075;-72
2021/01/14 02:04:53;;;;;;;6.75;2.80;;;;;;;-2.56;57.45;93350.75;5050539;28;20035;-72
2021/01/14 02:07:36;;;;;;;9.27;2.85;;;;;;;-2.55;57.96;93341.88;5049272;28;20013;-72
2021/01/14 02:10:08;;;;;;;6.80;2.83;;;;;;;-2.57;57.93;93351.00;5068593;28;20494;-72
2021/01/14 02:12:45;;;;;;;5.80;2.58;;;;;;;-2.59;58.66;93358.28;5070641;28;20035;-72
2021/01/14 02:15:12;;;;;;;6.28;2.50;;;;;;;-2.68;59.10;93337.84;5051911;28;20475;-72
2021/01/14 02:17:38;;;;;;;7.00;2.53;;;;;;;-2.74;59.42;93343.25;5050458;28;20035;-72
2021/01/14 02:20:04;;;;;;;8.00;3.17;;;;;;;-2.78;59.83;93326.50;5068015;28;20028;-72
2021/01/14 02:22:37;;;;;;;6.72;3.03;;;;;;;-2.79;59.84;93328.28;5067239;28;20111;-71
2021/01/14 02:25:24;;;;;;;8.57;3.10;;;;;;;-2.84;59.96;93329.03;5050370;28;20151;-71
2021/01/14 02:27:50;;;;;;;12.38;3.60;;;;;;;-2.86;59.85;93322.50;5065548;28;20479;-71
2021/01/14 02:30:17;;;;;;;12.80;2.78;;;;;;;-2.85;60.25;93327.47;5068829;28;20046;-71
2021/01/14 02:32:43;;;;;;;6.00;2.47;;;;;;;-2.81;59.99;93327.75;5070118;28;20024;-71
2021/01/14 02:35:09;;;;;;;11.10;2.90;;;;;;;-2.82;59.82;93326.97;5070144;28;20062;-71
2021/01/14 02:37:34;;;;;;;6.78;2.78;;;;;;;-2.95;60.05;93322.13;5069912;28;20111;-71
2021/01/14 02:40:00;;;;;;;8.50;3.05;;;;;;;-2.85;59.27;93318.84;5068927;28;20107;-71
2021/01/14 02:42:25;;;;;;;6.18;2.38;;;;;;;-2.91;59.08;93319.81;5066991;28;20044;-72
2021/01/14 02:44:50;;;;;;;10.48;3.03;;;;;;;-2.94;59.43;93326.31;5050181;28;20472;-71
2021/01/14 02:47:17;;;;;;;5.20;2.30;;;;;;;-2.87;59.56;93315.69;5048899;28;20070;-71
2021/01/14 02:49:53;;;;;;;6.25;2.63;;;;;;;-2.85;59.50;93324.06;5049972;28;20111;-71
2021/01/14 02:52:21;;;;;;;7.32;2.45;;;;;;;-2.87;60.25;93323.50;5050298;28;20044;-72
2021/01/14 02:54:47;;;;;;;5.93;2.58;;;;;;;-3.11;60.48;93326.34;5049503;28;20495;-72
2021/01/14 02:57:13;;;;;;;6.93;2.30;;;;;;;-2.99;60.63;93344.50;5049000;28;20032;-72
2021/01/14 02:59:39;;;;;;;6.43;2.50;;;;;;;-3.14;60.85;93339.84;5069607;28;20526;-72
2021/01/14 03:02:04;;;;;;;8.70;2.60;;;;;;;-3.07;61.07;93347.53;5068435;28;20115;-72
2021/01/14 03:04:30;;;;;;;6.45;2.88;;;;;;;-3.02;61.15;93339.75;5069761;28;20073;-72
2021/01/14 03:06:55;;;;;;;5.53;2.38;;;;;;;-3.05;61.35;93338.44;5068318;28;20031;-72
2021/01/14 03:09:20;;;;;;;8.65;3.10;;;;;;;-3.05;61.31;93330.59;5068441;28;20020;-72
2021/01/14 03:11:46;;;;;;;11.68;3.40;;;;;;;-3.00;61.08;93334.31;5069747;28;20051;-72
2021/01/14 03:14:11;;;;;;;8.15;3.92;;;;;;;-3.02;61.14;93340.53;5069602;28;20052;-72
2021/01/14 03:16:40;;;;;;;6.32;2.65;;;;;;;-3.02;61.12;93329.31;5069892;28;20051;-73
2021/01/14 03:19:05;;;;;;;12.93;2.85;;;;;;;-2.99;61.28;93320.22;5069680;28;20036;-72
2021/01/14 03:21:31;;;;;;;5.60;2.58;;;;;;;-3.09;61.20;93329.50;5069713;28;20432;-72
2021/01/14 03:23:56;;;;;;;5.82;2.22;;;;;;;-3.12;60.31;93321.38;5068002;28;20462;-72
2021/01/14 03:26:22;;;;;;;6.47;2.55;;;;;;;-3.07;60.22;93321.47;5068278;28;20025;-72
2021/01/14 03:28:48;;;;;;;6.50;3.00;;;;;;;-3.11;60.07;93309.94;5067934;28;20372;-72
2021/01/14 03:31:15;;;;;;;9.40;2.78;;;;;;;-3.06;60.00;93313.38;5055874;28;20017;-70
2021/01/14 03:33:41;;;;;;;7.32;2.75;;;;;;;-3.04;59.47;93311.31;5049684;28;20384;-69
2021/01/14 03:36:08;;;;;;;4.53;1.92;;;;;;;-3.02;59.47;93304.03;5050718;28;20099;-70
2021/01/14 03:38:34;;;;;;;6.47;2.50;;;;;;;-3.02;58.64;93303.25;5054957;28;20036;-72
2021/01/14 03:40:59;;;;;;;7.25;2.67;;;;;;;-3.00;59.20;93309.00;5047849;28;20033;-72
2021/01/14 03:43:25;;;;;;;8.80;2.45;;;;;;;-2.96;58.12;93304.13;5049525;28;20078;-72
2021/01/14 03:45:50;;;;;;;6.75;2.58;;;;;;;-2.99;56.98;93287.13;5055012;28;20055;-72
2021/01/14 03:48:16;;;;;;;4.60;1.50;;;;;;;-2.94;56.16;93289.00;5068037;28;20021;-72
2021/01/14 03:50:42;;;;;;;6.72;1.60;;;;;;;-2.94;54.02;93283.78;5069413;28;20518;-72
2021/01/14 03:53:07;;;;;;;4.43;1.48;;;;;;;-2.99;52.01;93268.88;5069095;28;20078;-72
2021/01/14 03:55:33;;;;;;;1.58;0.90;;;;;;;-2.96;51.83;93276.22;5068112;28;20039;-73
2021/01/14 03:57:58;;;;;;;2.95;1.50;;;;;;;-3.00;51.56;93263.91;5069083;28;20056;-72
2021/01/14 04:00:24;;;;;;;3.55;1.35;;;;;;;-2.98;51.30;93285.31;5067958;28;20399;-72
2021/01/14 04:02:49;;;;;;;3.70;1.33;;;;;;;-3.00;52.27;93263.91;5069231;28;20086;-72
2021/01/14 04:05:14;;;;;;;4.22;1.40;;;;;;;-3.03;52.95;93259.97;5070108;28;20035;-73
2021/01/14 04:07:42;;;;;;;5.00;1.13;;;;;;;-2.99;52.58;93260.25;5072906;28;20097;-72
2021/01/14 04:10:07;;;;;;;2.42;1.00;;;;;;;-3.02;52.39;93264.16;5072621;28;20395;-73
2021/01/14 04:12:33;;;;;;;3.63;1.52;;;;;;;-2.98;52.79;93261.84;5068538;28;20112;-72
2021/01/14 04:14:59;;;;;;;3.25;1.17;;;;;;;-3.07;53.24;93261.50;5063416;28;20156;-72
2021/01/14 04:17:26;;;;;;;5.00;1.58;;;;;;;-3.11;52.58;93263.00;5072925;28;20028;-72
2021/01/14 04:19:51;;;;;;;1.75;1.08;;;;;;;-3.08;51.31;93252.06;5056755;28;20079;-72
2021/01/14 04:22:17;;;;;;;2.35;1.30;;;;;;;-3.09;50.40;93263.56;5051138;28;20447;-72
2021/01/14 04:24:42;;;;;;;1.88;0.85;;;;;;;-3.06;51.18;93266.44;5052581;28;20025;-71
2021/01/14 04:27:07;;;;;;;3.17;1.63;;;;;;;-3.10;51.11;93254.91;5051269;28;20077;-73
2021/01/14 04:29:33;;;;;;;3.08;1.33;;;;;;;-3.08;51.13;93252.06;5063804;28;20476;-72
2021/01/14 04:31:59;;;;;;;2.42;0.90;;;;;;;-3.17;50.44;93249.13;5072676;28;20035;-72
2021/01/14 04:34:24;;;;;;;2.65;1.17;;;;;;;-3.20;50.46;93241.78;5071011;28;20036;-73
2021/01/14 04:37:01;;;;;;;1.83;0.82;;;;;;;-3.16;50.15;93242.09;5066575;28;20081;-72
2021/01/14 04:39:27;;;;;;;1.85;1.02;;;;;;;-3.10;50.26;93252.31;5070471;28;20036;-72
2021/01/14 04:41:57;;;;;;;4.35;1.10;;;;;;;-3.14;50.51;93234.81;5052173;28;20163;-72
2021/01/14 04:44:27;;;;;;;2.15;1.27;;;;;;;-3.15;50.70;93241.84;5068592;28;20426;-72
2021/01/14 04:47:15;;;;;;;3.25;1.05;;;;;;;-3.20;51.26;93239.16;5061574;28;20104;-72
2021/01/14 04:49:44;;;;;;;5.57;1.25;;;;;;;-3.16;51.05;93248.06;5071758;28;20028;-72
2021/01/14 04:52:16;;;;;;;2.30;1.08;;;;;;;-3.20;51.14;93248.81;5071999;28;20031;-72
2021/01/14 04:54:42;;;;;;;3.00;1.45;;;;;;;-3.13;50.14;93250.22;5072098;28;20036;-72
2021/01/14 04:57:20;;;;;;;2.90;1.27;;;;;;;-3.13;50.42;93244.22;5071982;28;20032;-72
2021/01/14 04:59:52;;;;;;;3.15;0.90;;;;;;;-3.18;50.42;93234.50;5071809;28;20122;-73
2021/01/14 05:02:21;;;;;;;2.95;1.17;;;;;;;-3.14;50.61;93226.97;5070600;28;20059;-72
2021/01/14 05:04:49;;;;;;;3.22;1.50;;;;;;;-3.12;51.05;93230.13;5070305;28;20032;-72
2021/01/14 05:07:19;;;;;;;2.80;1.08;;;;;;;-3.17;51.21;93223.06;5070652;28;20104;-72
2021/01/14 05:09:45;;;;;;;3.35;1.60;;;;;;;-3.12;51.76;93223.09;5071819;28;20032;-72
2021/01/14 05:12:16;;;;;;;3.22;0.95;;;;;;;-3.13;52.17;93210.31;5070097;28;20021;-72
2021/01/14 05:14:43;;;;;;;3.00;0.75;;;;;;;-3.10;53.03;93215.03;5070153;28;20040;-72
2021/01/14 05:17:08;;;;;;;4.60;1.50;;;;;;;-3.15;51.63;93212.38;5071143;28;20060;-72
2021/01/14 05:19:33;;;;;;;2.75;1.38;;;;;;;-3.14;51.47;93206.91;5053071;28;20121;-72
2021/01/14 05:22:06;;;;;;;2.10;1.00;;;;;;;-3.09;51.01;93209.59;5062139;28;20039;-72
2021/01/14 05:24:31;;;;;;;1.98;1.02;;;;;;;-3.11;50.20;93206.44;5070154;28;20384;-72
2021/01/14 05:26:57;;;;;;;2.58;0.95;;;;;;;-3.09;50.34;93206.19;5071170;28;20032;-72
2021/01/14 05:29:22;;;;;;;4.20;1.17;;;;;;;-3.13;49.90;93208.50;5071433;28;20020;-71
2021/01/14 05:31:49;;;;;;;3.95;1.10;;;;;;;-3.08;49.61;93195.50;5071129;28;20017;-72
2021/01/14 05:34:15;;;;;;;2.47;1.25;;;;;;;-3.08;49.24;93190.28;5063227;28;20066;-72
2021/01/14 05:36:55;;;;;;;4.47;1.38;;;;;;;-3.09;49.11;93183.50;5051131;28;20451;-72
2021/01/14 05:39:21;;;;;;;3.22;1.02;;;;;;;-3.02;48.66;93186.69;5055182;28;20067;-71
2021/01/14 05:41:48;;;;;;;2.85;1.17;;;;;;;-2.96;48.33;93186.78;5051165;28;20032;-72
2021/01/14 05:44:14;;;;;;;4.88;1.17;;;;;;;-3.01;47.98;93187.50;5049697;28;20059;-71
2021/01/14 05:46:40;;;;;;;1.42;0.90;;;;;;;-3.01;47.52;93182.28;5050985;28;20107;-72
2021/01/14 05:49:09;;;;;;;1.95;0.80;;;;;;;-2.96;47.09;93184.16;5050856;28;20100;-71
2021/01/14 05:51:35;;;;;;;1.90;1.00;;;;;;;-2.96;47.29;93190.16;5049811;28;20009;-71
2021/01/14 05:54:04;;;;;;;2.58;1.05;;;;;;;-2.93;47.54;93181.84;5050663;28;20028;-71
2021/01/14 05:56:47;;;;;;;2.17;1.08;;;;;;;-2.91;47.72;93189.41;5066731;28;20032;-71
2021/01/14 05:59:17;;;;;;;2.90;1.05;;;;;;;-2.99;46.94;93182.84;5058969;28;20104;-71
2021/01/14 06:01:52;;;;;;;1.98;1.08;;;;;;;-2.90;47.25;93183.19;5050868;28;20094;-71
2021/01/14 06:04:20;;;;;;;4.43;1.40;;;;;;;-2.97;46.99;93179.97;5068588;28;20185;-72
2021/01/14 06:06:48;;;;;;;2.25;1.10;;;;;;;-2.92;47.21;93177.41;5050731;28;20113;-71
2021/01/14 06:09:15;;;;;;;4.22;1.02;;;;;;;-2.91;47.25;93185.00;5049097;28;20032;-71
2021/01/14 06:11:42;;;;;;;3.22;1.83;;;;;;;-2.91;47.23;93190.22;5050617;28;20056;-71
2021/01/14 06:14:25;;;;;;;4.70;1.02;;;;;;;-2.89;47.15;93192.56;5049098;28;20114;-72
2021/01/14 06:16:51;;;;;;;3.42;1.52;;;;;;;-2.98;46.99;93200.03;5058330;28;20020;-72
2021/01/14 06:19:16;;;;;;;4.07;1.80;;;;;;;-3.00;46.55;93198.72;5070179;28;20499;-72
2021/01/14 06:21:43;;;;;;;2.90;1.02;;;;;;;-2.98;46.63;93200.03;5070589;28;20455;-72
2021/01/14 06:24:18;;;;;;;3.40;1.42;;;;;;;-2.98;46.93;93209.69;5068991;28;20033;-72
2021/01/14 06:26:44;;;;;;;2.75;1.30;;;;;;;-2.94;46.35;93213.38;5070286;28;20389;-71
2021/01/14 06:29:17;;;;;;;2.95;1.40;;;;;;;-2.87;46.40;93206.16;5069472;28;20110;-71
2021/01/14 06:31:43;;;;;;;2.60;1.10;;;;;;;-2.83;47.17;93207.22;5068797;28;20085;-72
2021/01/14 06:34:08;;;;;;;3.78;1.20;;;;;;;-2.90;46.69;93204.81;5070192;28;20025;-72
2021/01/14 06:36:39;;;;;;;2.80;1.48;;;;;;;-2.81;47.07;93210.38;5068502;28;20050;-72
2021/01/14 06:39:13;;;;;;;5.30;1.35;;;;;;;-2.67;46.52;93216.78;5068534;28;20020;-72
2021/01/14 06:41:41;;;;;;;5.13;1.40;;;;;;;-2.62;46.43;93208.22;5069793;28;20056;-72
2021/01/14 06:44:12;;;;;;;5.50;1.25;;;;;;;-2.53;45.62;93208.56;5068661;28;20090;-72
2021/01/14 06:46:38;;;;;;;2.72;1.50;;;;;;;-2.52;45.16;93197.88;5068528;28;20037;-72
2021/01/14 06:49:03;;;;;;;2.88;1.33;;;;;;;-2.44;44.66;93187.00;5060890;28;20063;-72
2021/01/14 06:51:55;;;;;;;2.15;0.80;;;;;;;-2.39;44.95;93203.72;5048496;28;20456;-72
2021/01/14 06:54:22;;;;;;;3.00;0.93;;;;;;;-2.34;44.32;93217.63;5067786;28;20024;-72
2021/01/14 06:57:06;;;;;;;2.47;1.27;;;;;;;-2.27;44.07;93205.13;5059112;28;20108;-72
2021/01/14 06:59:37;;;;;;;10.88;3.90;;;;;;;-2.18;46.68;93199.44;5067563;28;20020;-72
2021/01/14 07:02:05;;;;;;;17.48;7.60;;;;;;;-2.09;51.84;93198.75;5068121;28;20035;-72
2021/01/14 07:04:52;;;;;;;23.10;8.82;;;;;;;-2.05;54.52;93205.03;5065688;28;20118;-72
2021/01/14 07:07:38;;;;;;;14.75;5.78;;;;;;;-2.06;51.33;93221.72;5068069;28;20428;-72
2021/01/14 07:10:08;;;;;;;3.28;1.80;;;;;;;-2.04;46.52;93208.41;5068281;28;20040;-72
2021/01/14 07:12:39;;;;;;;2.03;0.95;;;;;;;-2.08;44.35;93209.97;5065148;28;20032;-71
2021/01/14 07:15:13;;;;;;;3.20;1.10;;;;;;;-2.00;44.37;93209.50;5062647;28;20056;-71
2021/01/14 07:17:40;;;;;;;2.83;1.08;;;;;;;-2.17;43.82;93196.59;5069289;28;20067;-71
2021/01/14 07:20:14;;;;;;;2.63;1.05;;;;;;;-2.08;43.61;93183.84;5064044;28;20146;-71
2021/01/14 07:22:57;;;;;;;15.88;4.00;;;;;;;-1.94;45.05;93198.03;5056102;28;20507;-71
2021/01/14 07:25:24;;;;;;;15.00;2.97;;;;;;;-1.87;45.75;93187.41;5052165;28;20127;-71
2021/01/14 07:27:50;;;;;;;8.15;2.58;;;;;;;-1.80;45.17;93166.28;5057587;28;20036;-72
2021/01/14 07:30:17;;;;;;;7.88;1.90;;;;;;;-1.66;44.38;93178.63;5049409;28;20427;-71
2021/01/14 07:32:56;;;;;;;8.32;1.58;;;;;;;-1.64;44.29;93175.75;5066660;28;20021;-71
2021/01/14 07:35:36;;;;;;;5.38;2.10;;;;;;;-1.60;44.12;93176.03;5069060;28;20395;-71
2021/01/14 07:38:07;;;;;;;5.93;1.50;;;;;;;-1.59;44.31;93165.31;5068908;28;20021;-71
2021/01/14 07:40:34;;;;;;;13.27;1.70;;;;;;;-1.50;44.17;93176.88;5069428;28;20029;-72
2021/01/14 07:43:03;;;;;;;7.07;1.58;;;;;;;-1.46;44.51;93170.09;5072771;28;20048;-72
2021/01/14 07:45:29;;;;;;;6.32;2.63;;;;;;;-1.26;44.08;93186.91;5072963;28;20031;-73
2021/01/14 07:47:56;;;;;;;20.33;8.50;;;;;;;-1.05;48.94;93185.16;5067357;28;20041;-73
2021/01/14 07:50:26;;;;;;;23.05;9.50;;;;;;;-0.90;50.84;93176.53;5051755;28;20027;-72
2021/01/14 07:52:58;;;;;;;33.40;11.18;;;;;;;-0.77;51.44;93170.03;5063998;28;20021;-72
2021/01/14 07:55:31;;;;;;;19.05;8.55;;;;;;;-0.59;49.42;93172.16;5052987;28;20029;-71
2021/01/14 07:58:12;;;;;;;9.65;5.57;;;;;;;-0.42;48.70;93159.59;5071334;28;20160;-70
2021/01/14 08:00:39;;;;;;;14.57;7.13;;;;;;;-0.26;48.72;93141.28;5057967;28;20567;-71
2021/01/14 08:03:13;;;;;;;26.58;8.60;;;;;;;-0.03;48.32;93155.66;5072495;28;20103;-72
2021/01/14 08:05:44;;;;;;;17.60;6.72;;;;;;;0.17;47.96;93139.13;5056968;28;20093;-73
2021/01/14 08:08:36;;;;;;;11.67;6.03;;;;;;;0.43;46.61;93157.38;5072426;28;20056;-73
2021/01/14 08:11:21;;;;;;;12.23;5.03;;;;;;;0.58;46.46;93171.25;5072754;28;20101;-73
2021/01/14 08:14:05;;;;;;;13.75;4.28;;;;;;;0.66;45.74;93161.28;5066883;28;20045;-73
2021/01/14 08:16:53;;;;;;;19.25;6.38;;;;;;;0.81;45.98;93163.81;5052124;28;20081;-73
2021/01/14 08:19:28;;;;;;;13.98;4.60;;;;;;;0.93;45.57;93169.53;5065025;28;20039;-73
2021/01/14 08:22:03;;;;;;;12.32;6.00;;;;;;;1.05;44.96;93168.44;5056356;28;20542;-73
2021/01/14 08:24:46;;;;;;;10.32;5.13;;;;;;;1.15;44.52;93153.41;5054636;28;20063;-73
2021/01/14 08:27:23;;;;;;;15.48;5.82;;;;;;;1.21;44.04;93130.56;5057189;28;20071;-72
2021/01/14 08:30:08;;;;;;;21.05;6.82;;;;;;;1.24;43.63;93139.72;5072440;28;20048;-75
2021/01/14 08:32:41;;;;;;;24.65;5.53;;;;;;;1.22;43.19;93136.56;5049087;28;20068;-73
2021/01/14 08:35:07;;;;;;;15.77;5.20;;;;;;;1.21;44.07;93127.94;5069730;28;20074;-73
2021/01/14 08:37:44;;;;;;;12.40;5.53;;;;;;;1.31;43.35;93127.84;5071087;28;20040;-70
2021/01/14 08:40:12;;;;;;;12.25;5.63;;;;;;;1.31;43.50;93113.97;5056247;28;20037;-75
2021/01/14 08:42:40;;;;;;;10.75;4.97;;;;;;;1.31;43.76;93085.84;5060735;28;20067;-74
2021/01/14 08:45:27;;;;;;;18.45;6.10;;;;;;;1.34;43.40;93074.81;5066959;28;20043;-79
2021/01/14 08:47:53;;;;;;;17.73;6.60;;;;;;;1.37;43.88;93066.38;5063600;28;20036;-74
2021/01/14 08:50:32;;;;;;;27.48;8.90;;;;;;;1.42;43.72;93064.75;5068706;28;20116;-76
2021/01/14 08:53:01;;;;;;;21.02;9.05;;;;;;;1.45;44.06;93069.47;5060540;28;20111;-75
2021/01/14 08:55:29;;;;;;;19.15;7.45;;;;;;;1.52;45.20;93072.56;5064346;28;20399;-74
2021/01/14 08:57:56;;;;;;;22.52;10.68;;;;;;;1.55;45.29;93061.53;5050611;28;20079;-82
2021/01/14 09:00:23;;;;;;;23.75;9.65;;;;;;;1.55;46.16;93061.53;5067099;28;20031;-71
2021/01/14 09:02:48;;;;;;;23.42;8.82;;;;;;;1.49;45.13;93067.88;5051671;28;20061;-72
2021/01/14 09:05:14;;;;;;;20.90;7.68;;;;;;;1.54;44.92;93054.69;5050245;28;20061;-76
2021/01/14 09:07:40;;;;;;;17.58;7.03;;;;;;;1.59;43.95;93041.53;5054240;28;20050;-73
2021/01/14 09:10:08;;;;;;;18.88;6.03;;;;;;;1.62;44.28;93025.19;5050112;28;20427;-75
2021/01/14 09:12:35;;;;;;;18.23;7.50;;;;;;;1.67;43.87;93025.16;5049449;28;20025;-73
2021/01/14 09:15:02;;;;;;;15.25;6.35;;;;;;;1.66;44.04;93023.56;5050116;28;20084;-74
2021/01/14 09:17:28;;;;;;;12.48;6.43;;;;;;;1.70;43.28;93029.84;5069852;28;20047;-74
2021/01/14 09:19:53;;;;;;;21.20;5.97;;;;;;;1.71;43.68;93015.66;5071138;28;20020;-74
2021/01/14 09:22:26;;;;;;;15.75;5.72;;;;;;;1.73;43.56;93000.41;5069728;28;20456;-76
2021/01/14 09:24:52;;;;;;;16.33;6.53;;;;;;;1.74;43.45;92995.91;5071295;28;20060;-75
2021/01/14 09:27:17;;;;;;;18.95;6.63;;;;;;;1.74;43.64;93007.22;5063123;28;20029;-74
2021/01/14 09:29:43;;;;;;;14.85;6.43;;;;;;;1.63;43.77;93011.00;5068246;28;20445;-76
2021/01/14 09:32:12;;;;;;;9.80;5.03;;;;;;;1.59;43.66;93002.13;5071144;28;20094;-75
2021/01/14 09:34:38;;;;;;;15.77;5.93;;;;;;;1.54;43.31;92997.69;5052938;28;20027;-76
2021/01/14 09:37:14;;;;;;;21.05;6.05;;;;;;;1.62;43.65;92995.53;5050892;28;20025;-76
2021/01/14 09:39:41;;;;;;;15.88;6.22;;;;;;;1.75;43.76;92992.22;5068232;28;20036;-73
2021/01/14 09:42:07;;;;;;;14.02;6.22;;;;;;;1.90;43.41;92983.41;5069688;28;20582;-74
2021/01/14 09:44:33;;;;;;;12.52;5.72;;;;;;;2.06;42.12;92961.13;5069302;28;20163;-74
2021/01/14 09:46:59;;;;;;;13.35;5.28;;;;;;;2.11;41.96;92961.06;5069122;28;20056;-76
2021/01/14 09:49:26;;;;;;;25.70;6.90;;;;;;;2.13;42.51;92951.03;5070699;28;20444;-76
2021/01/14 09:51:52;;;;;;;18.02;7.03;;;;;;;2.20;43.04;92946.25;5069125;28;20020;-76
2021/01/14 09:54:18;;;;;;;19.23;6.15;;;;;;;2.30;43.29;92944.53;5071054;28;20034;-72
2021/01/14 09:56:49;;;;;;;15.35;6.20;;;;;;;2.45;49.21;92936.44;5069035;28;20167;-74
2021/01/14 09:59:42;;;;;;;14.05;6.38;;;;;;;2.54;42.48;92928.69;5066176;28;20496;-75
2021/01/14 10:02:10;;;;;;;17.98;7.82;;;;;;;2.68;42.79;92942.69;5070160;28;20033;-75
2021/01/14 10:04:41;;;;;;;21.15;7.40;;;;;;;2.89;42.33;92934.47;5069459;28;20393;-76
2021/01/14 10:07:14;;;;;;;16.02;6.32;;;;;;;3.08;41.41;92943.13;5068534;28;20296;-76
2021/01/14 10:09:39;;;;;;;;;;;;;;;3.22;41.29;92943.94;5071110;28;20103;-75
2021/01/14 10:12:06;;;;;;;16.45;5.60;;;;;;;3.26;40.11;92949.41;5070243;28;19958;-75
2021/01/14 10:14:32;;;;;;;13.23;5.35;;;;;;;3.28;40.11;92936.75;5070248;28;20074;-76
2021/01/14 10:17:10;;;;;;;17.33;6.80;;;;;;;3.24;40.23;92930.50;5066647;28;20029;-75
2021/01/14 10:19:43;;;;;;;11.73;5.53;;;;;;;3.15;39.45;92932.97;5066181;28;20074;-75
2021/01/14 10:22:09;;;;;;;14.27;5.22;;;;;;;2.97;40.11;92939.06;5070141;28;20081;-75
2021/01/14 10:24:35;;;;;;;14.05;5.68;;;;;;;2.78;40.61;92937.25;5070280;28;20395;-74
2021/01/14 10:27:13;;;;;;;13.73;4.85;;;;;;;2.60;39.68;92938.84;5054226;28;20092;-75
2021/01/14 10:29:40;;;;;;;15.75;6.18;;;;;;;2.47;40.92;92950.09;5069331;28;20111;-76
2021/01/14 10:32:17;;;;;;;12.63;6.05;;;;;;;2.44;40.83;92942.75;5068328;28;20047;-76
2021/01/14 10:34:51;;;;;;;14.60;5.55;;;;;;;2.47;40.59;92944.81;5069671;28;20395;-76
2021/01/14 10:37:27;;;;;;;17.02;6.05;;;;;;;2.52;40.75;92950.00;5066093;28;20024;-75
2021/01/14 10:39:55;;;;;;;13.20;5.75;;;;;;;2.53;40.67;92941.06;5068045;28;20028;-75
2021/01/14 10:42:36;;;;;;;16.00;7.22;;;;;;;2.53;41.61;92935.78;5068381;28;20037;-76
2021/01/14 10:45:07;;;;;;;14.10;6.85;;;;;;;2.58;40.95;92932.31;5070073;28;20044;-73
2021/01/14 10:47:34;;;;;;;14.73;6.05;;;;;;;2.57;40.69;92926.25;5050801;28;20415;-75
2021/01/14 10:50:17;;;;;;;21.65;6.95;;;;;;;2.53;40.66;92917.38;5050680;28;20484;-75
2021/01/14 10:53:02;;;;;;;21.58;6.72;;;;;;;2.40;42.12;92913.63;5070918;28;20059;-74
2021/01/14 10:55:28;;;;;;;16.55;7.22;;;;;;;2.56;41.97;92902.88;5068374;28;20158;-74
2021/01/14 10:57:56;;;;;;;18.13;7.63;;;;;;;2.65;41.70;92905.66;5056657;28;20500;-74
2021/01/14 11:00:25;;;;;;;20.75;6.88;;;;;;;2.79;41.91;92917.78;5053352;28;20573;-75
2021/01/14 11:03:05;;;;;;;20.25;8.25;;;;;;;2.90;42.27;92922.88;5061228;28;20035;-75
2021/01/14 11:05:51;;;;;;;22.38;8.18;;;;;;;2.96;41.57;92925.13;5062066;28;20038;-73
2021/01/14 11:08:23;;;;;;;19.25;7.75;;;;;;;3.03;41.45;92929.25;5067393;28;20465;-76
2021/01/14 11:11:04;;;;;;;18.55;7.05;;;;;;;3.05;40.91;92932.38;5067784;28;20534;-75
2021/01/14 11:13:46;;;;;;;25.10;8.80;;;;;;;2.99;40.51;92936.94;5046563;28;20037;-75
2021/01/14 11:16:13;;;;;;;22.25;10.65;;;;;;;2.90;40.97;92933.41;5049070;28;20032;-75
2021/01/14 11:18:41;;;;;;;23.63;9.95;;;;;;;2.85;41.25;92933.47;5053341;28;20112;-75
2021/01/14 11:21:08;;;;;;;28.42;12.02;;;;;;;2.74;41.54;92922.34;5048092;28;20025;-75
2021/01/14 11:23:33;;;;;;;34.35;11.90;;;;;;;2.65;42.40;92919.59;5046143;28;20031;-76
2021/01/14 11:26:02;;;;;;;46.05;12.57;;;;;;;2.65;41.87;92913.53;5049629;28;20104;-75
2021/01/14 11:28:43;;;;;;;30.13;12.15;;;;;;;2.60;41.98;92927.53;5048103;28;20027;-76
2021/01/14 11:31:20;;;;;;;25.13;11.15;;;;;;;2.55;42.36;92915.25;5048037;28;20040;-75
2021/01/14 11:33:46;;;;;;;23.75;11.30;;;;;;;2.61;42.55;92908.06;5053266;28;20056;-76
2021/01/14 11:36:14;;;;;;;44.10;18.02;;;;;;;2.69;43.07;92898.75;5068005;28;20111;-76
2021/01/14 11:38:41;;;;;;;33.67;15.98;;;;;;;2.79;43.28;92898.59;5066696;28;20486;-75
2021/01/14 11:41:07;;;;;;;28.98;11.77;;;;;;;2.88;42.30;92888.94;5066459;28;20029;-75
2021/01/14 11:43:33;;;;;;;32.45;12.35;;;;;;;2.98;42.38;92886.16;5056599;28;20028;-76